Time;durP1;ratioP1;P1;durP2;ratioP2;P2;SDS_P1;SDS_P2;PMS_P1;PMS_P2;Temp;Humidity;BMP_temperature;BMP_pressure;BME280_temperature;BME280_humidity;BME280_pressure;Samples;Min_cycle;Max_cycle;Signal;HPM_P1;HPM_P2
2022/11/26 00:01:21;;;;;;;127.40;51.20;;;;;;;2.29;88.46;101110.58;104778;1310;37076;-70
2022/11/26 00:04:01;;;;;;;127.60;49.20;;;;;;;2.27;88.39;101107.81;104786;1310;38064;-71
2022/11/26 00:06:39;;;;;;;117.00;46.20;;;;;;;2.26;88.56;101107.63;104788;1310;38793;-71
2022/11/26 00:09:18;;;;;;;125.70;46.20;;;;;;;2.27;88.61;101108.16;104712;1310;38287;-70
2022/11/26 00:11:52;;;;;;;119.50;46.20;;;;;;;2.26;88.56;101113.48;104753;1309;36984;-69
2022/11/26 00:14:27;;;;;;;138.40;51.80;;;;;;;2.29;88.82;101108.52;104769;1305;37158;-73
2022/11/26 00:17:03;;;;;;;123.90;49.10;;;;;;;2.32;88.89;101109.91;104758;1310;35990;-73
2022/11/26 00:19:46;;;;;;;157.60;59.60;;;;;;;2.35;88.97;101111.14;104774;1310;38734;-70
2022/11/26 00:22:29;;;;;;;151.80;66.10;;;;;;;2.35;88.80;101113.73;104775;1310;38800;-72
2022/11/26 00:25:03;;;;;;;141.70;59.60;;;;;;;2.33;88.66;101114.75;104746;1310;37244;-72
2022/11/26 00:27:38;;;;;;;127.70;54.70;;;;;;;2.36;88.80;101110.64;104770;1305;35946;-71
2022/11/26 00:30:18;;;;;;;127.70;51.50;;;;;;;2.40;88.78;101117.38;104756;1310;36911;-71
2022/11/26 00:32:52;;;;;;;121.60;48.20;;;;;;;2.41;88.71;101117.89;104764;1310;36910;-71
2022/11/26 00:35:26;;;;;;;128.30;50.70;;;;;;;2.42;88.95;101121.35;104769;1310;37010;-70
2022/11/26 00:38:01;;;;;;;126.80;48.40;;;;;;;2.41;88.95;101123.74;104667;1310;174575;-71
2022/11/26 00:40:35;;;;;;;123.00;50.10;;;;;;;2.43;89.10;101125.67;104812;1306;37149;-72
2022/11/26 00:43:13;;;;;;;117.40;49.60;;;;;;;2.44;89.01;101127.05;104741;1310;37120;-71
2022/11/26 00:45:49;;;;;;;120.00;49.80;;;;;;;2.47;88.95;101124.66;104771;1310;36057;-70
2022/11/26 00:48:22;;;;;;;120.50;50.80;;;;;;;2.44;88.65;101125.84;104787;1310;37039;-70
2022/11/26 00:50:58;;;;;;;117.70;49.80;;;;;;;2.47;89.25;101125.35;104675;1309;174587;-71
2022/11/26 00:53:37;;;;;;;112.80;49.00;;;;;;;2.48;89.00;101127.60;104743;1310;36920;-70
2022/11/26 00:56:17;;;;;;;111.30;46.10;;;;;;;2.48;89.14;101129.15;104731;1309;37040;-70
2022/11/26 00:58:51;;;;;;;113.10;46.00;;;;;;;2.48;89.08;101128.12;104747;1310;37182;-72
2022/11/26 01:01:28;;;;;;;106.00;46.70;;;;;;;2.48;89.12;101132.25;104770;1309;36977;-72
2022/11/26 01:04:03;;;;;;;108.90;47.10;;;;;;;2.49;89.13;101134.48;104783;1310;37043;-71
2022/11/26 01:06:41;;;;;;;124.40;47.20;;;;;;;2.53;89.31;101133.84;104736;1312;37236;-70
2022/11/26 01:09:18;;;;;;;122.70;47.40;;;;;;;2.56;89.34;101141.79;104773;1308;37198;-72
2022/11/26 01:11:54;;;;;;;108.20;46.50;;;;;;;2.55;88.95;101137.83;104754;1311;36913;-70
2022/11/26 01:14:28;;;;;;;112.60;44.50;;;;;;;2.54;88.86;101136.59;104773;1312;36917;-73
2022/11/26 01:17:02;;;;;;;104.50;45.30;;;;;;;2.53;89.00;101134.18;104740;1310;38896;-72
2022/11/26 01:19:36;;;;;;;107.50;46.10;;;;;;;2.58;89.18;101133.87;104767;1310;37060;-73
2022/11/26 01:22:19;;;;;;;102.90;42.10;;;;;;;2.60;89.23;101134.04;104748;1311;37481;-71
2022/11/26 01:24:54;;;;;;;114.90;44.20;;;;;;;2.58;89.06;101135.41;104792;1311;37841;-73
2022/11/26 01:27:29;;;;;;;120.20;47.50;;;;;;;2.56;89.17;101135.59;104753;1312;37656;-73
2022/11/26 01:30:11;;;;;;;99.00;40.10;;;;;;;2.56;89.14;101133.70;104753;1306;37249;-72
2022/11/26 01:32:45;;;;;;;97.90;43.90;;;;;;;2.59;89.23;101134.73;104754;1311;37065;-71
2022/11/26 01:35:19;;;;;;;115.00;45.40;;;;;;;2.62;89.19;101134.25;104796;1310;37069;-70
2022/11/26 01:37:55;;;;;;;115.00;48.20;;;;;;;2.64;89.23;101135.11;104770;1312;36913;-70
2022/11/26 01:40:50;;;;;;;108.70;45.40;;;;;;;2.66;89.31;101136.48;104781;1312;36983;-73
2022/11/26 01:43:28;;;;;;;112.40;45.40;;;;;;;2.65;89.18;101142.35;104757;1311;37036;-71
2022/11/26 01:46:05;;;;;;;111.50;44.90;;;;;;;2.66;89.20;101143.73;104754;1311;38289;-72
2022/11/26 01:48:39;;;;;;;108.10;46.20;;;;;;;2.67;88.99;101141.86;104812;1303;37167;-73
2022/11/26 01:51:16;;;;;;;116.10;46.00;;;;;;;2.69;89.02;101141.69;104747;1312;37081;-72
2022/11/26 01:53:51;;;;;;;112.40;46.00;;;;;;;2.70;89.17;101145.48;104797;1311;36979;-73
2022/11/26 01:56:36;;;;;;;107.80;48.40;;;;;;;2.70;89.31;101143.06;104762;1311;36964;-70
2022/11/26 01:59:12;;;;;;;115.70;45.50;;;;;;;2.68;89.26;101143.77;104795;1308;37231;-70
2022/11/26 02:01:46;;;;;;;107.20;44.80;;;;;;;2.66;89.26;101143.75;104746;1312;36882;-70
2022/11/26 02:04:22;;;;;;;101.80;45.00;;;;;;;2.66;89.17;101148.39;104769;1311;37468;-73
2022/11/26 02:06:56;;;;;;;105.00;45.50;;;;;;;2.63;88.95;101148.89;104758;1312;36973;-71
2022/11/26 02:09:31;;;;;;;107.30;44.70;;;;;;;2.64;89.05;101146.30;104783;1312;36912;-70
2022/11/26 02:12:05;;;;;;;115.70;47.30;;;;;;;2.63;89.01;101149.06;104758;1312;37042;-71
2022/11/26 02:14:41;;;;;;;110.30;47.40;;;;;;;2.62;89.11;101150.61;104787;1311;38496;-73
2022/11/26 02:17:21;;;;;;;110.00;45.60;;;;;;;2.59;89.00;101149.89;104641;1312;174533;-72
2022/11/26 02:20:31;;;;;;;103.00;44.50;;;;;;;2.56;89.04;101148.68;104689;1311;174282;-70
2022/11/26 02:23:47;;;;;;;111.20;45.30;;;;;;;2.59;89.01;101156.27;104757;1312;36955;-70
2022/11/26 02:27:19;;;;;;;104.20;45.10;;;;;;;2.61;89.40;101157.48;104671;1311;174508;-73
2022/11/26 02:30:16;;;;;;;121.20;46.70;;;;;;;2.63;89.33;101157.34;104225;1317;37234;-73
2022/11/26 02:33:07;;;;;;;114.70;44.50;;;;;;;2.58;89.09;101161.09;104710;1311;37254;-72
2022/11/26 02:35:48;;;;;;;107.20;44.30;;;;;;;2.55;89.08;101161.92;104806;1310;38790;-72
2022/11/26 02:38:31;;;;;;;101.80;43.40;;;;;;;2.52;89.11;101160.70;104798;1310;37003;-73
2022/11/26 02:41:07;;;;;;;100.10;44.10;;;;;;;2.53;89.25;101163.98;104759;1312;37569;-71
2022/11/26 02:43:41;;;;;;;98.00;44.60;;;;;;;2.55;89.27;101158.30;104786;1311;37176;-70
2022/11/26 02:46:17;;;;;;;98.90;44.60;;;;;;;2.57;89.30;101159.19;104764;1311;37547;-72
2022/11/26 02:48:52;;;;;;;98.00;43.30;;;;;;;2.58;89.39;101160.73;104667;1312;174554;-72
2022/11/26 02:51:26;;;;;;;100.30;44.80;;;;;;;2.57;89.41;101162.29;104717;1311;37315;-72
2022/11/26 02:54:01;;;;;;;91.70;38.70;;;;;;;2.54;89.06;101159.85;104769;1312;36977;-72
2022/11/26 02:56:35;;;;;;;96.70;42.60;;;;;;;2.52;89.05;101158.46;104776;1312;36623;-71
2022/11/26 02:59:09;;;;;;;81.80;38.50;;;;;;;2.51;88.86;101160.86;104762;1311;36810;-72
2022/11/26 03:01:45;;;;;;;85.40;38.90;;;;;;;2.49;88.93;101158.26;104747;1312;35977;-70
2022/11/26 03:04:23;;;;;;;87.90;38.40;;;;;;;2.49;89.16;101153.78;104788;1310;37595;-72
2022/11/26 03:07:03;;;;;;;85.00;38.90;;;;;;;2.50;89.27;101155.16;104761;1301;36959;-70
2022/11/26 03:09:49;;;;;;;80.80;36.50;;;;;;;2.48;89.14;101157.73;104783;1311;36911;-70
2022/11/26 03:12:28;;;;;;;80.60;41.60;;;;;;;2.44;88.83;101158.55;104651;1311;187190;-73
2022/11/26 03:15:04;;;;;;;77.60;36.00;;;;;;;2.42;89.04;101162.16;104765;1312;36899;-70
2022/11/26 03:17:38;;;;;;;83.50;36.80;;;;;;;2.40;88.88;101165.59;104778;1312;36991;-70
2022/11/26 03:20:15;;;;;;;84.00;37.80;;;;;;;2.39;88.88;101170.23;104821;1312;36833;-72
2022/11/26 03:22:51;;;;;;;88.30;40.70;;;;;;;2.38;89.01;101168.17;104644;1311;174465;-72
2022/11/26 03:25:25;;;;;;;91.50;38.60;;;;;;;2.36;89.00;101171.23;104669;1311;174544;-72
2022/11/26 03:27:59;;;;;;;79.90;35.90;;;;;;;2.32;88.98;101170.34;104772;1312;36951;-70
2022/11/26 03:30:35;;;;;;;85.90;39.90;;;;;;;2.30;88.87;101174.80;104813;1311;36989;-73
2022/11/26 03:33:12;;;;;;;88.70;41.10;;;;;;;2.28;88.96;101172.73;104753;1310;36931;-73
2022/11/26 03:35:46;;;;;;;82.90;39.10;;;;;;;2.29;89.07;101172.21;104749;1312;37739;-70
2022/11/26 03:38:25;;;;;;;89.50;39.60;;;;;;;2.27;88.93;101175.30;104756;1311;37068;-72
2022/11/26 03:41:04;;;;;;;104.10;48.40;;;;;;;2.29;89.33;101175.66;104795;1311;38649;-71
2022/11/26 03:43:40;;;;;;;111.30;49.50;;;;;;;2.29;89.23;101179.96;104788;1311;37483;-72
2022/11/26 03:46:14;;;;;;;114.70;51.10;;;;;;;2.25;89.05;101179.91;104750;1311;37195;-71
2022/11/26 03:48:51;;;;;;;95.90;40.80;;;;;;;2.20;89.12;101185.40;104794;1310;36292;-73
2022/11/26 03:51:28;;;;;;;107.20;47.00;;;;;;;2.18;89.09;101190.89;104765;1311;37019;-72
2022/11/26 03:54:09;;;;;;;98.90;42.20;;;;;;;2.17;89.10;101191.73;104783;1312;37976;-72
2022/11/26 03:56:52;;;;;;;89.80;42.20;;;;;;;2.19;89.22;101192.95;104754;1312;37046;-71
2022/11/26 03:59:26;;;;;;;91.30;42.60;;;;;;;2.22;89.47;101197.13;104797;1311;36692;-70
2022/11/26 04:02:03;;;;;;;96.20;40.50;;;;;;;2.24;89.35;101196.45;104743;1312;36893;-70
2022/11/26 04:04:39;;;;;;;99.20;44.30;;;;;;;2.21;89.42;101196.08;104817;1312;36137;-73
2022/11/26 04:07:13;;;;;;;97.20;38.00;;;;;;;2.20;89.52;101196.92;104668;1311;172425;-71
2022/11/26 04:09:48;;;;;;;94.50;39.60;;;;;;;2.22;89.63;101199.54;104778;1311;36979;-72
2022/11/26 04:12:22;;;;;;;90.30;37.00;;;;;;;2.23;89.43;101199.70;104764;1312;37038;-72
2022/11/26 04:14:56;;;;;;;91.70;42.90;;;;;;;2.22;89.51;101204.35;104785;1312;36082;-72
2022/11/26 04:17:31;;;;;;;109.70;41.40;;;;;;;2.20;89.46;101201.73;104758;1312;37269;-72
2022/11/26 04:20:06;;;;;;;107.90;42.60;;;;;;;2.18;89.51;101203.29;104791;1312;36697;-71
2022/11/26 04:22:39;;;;;;;103.10;42.90;;;;;;;2.14;89.39;101211.33;104792;1302;36992;-71
2022/11/26 04:25:13;;;;;;;100.70;42.50;;;;;;;2.11;89.50;101211.80;104770;1312;37746;-72
2022/11/26 04:27:47;;;;;;;103.00;45.70;;;;;;;2.09;89.35;101214.72;104738;1312;38159;-72
2022/11/26 04:30:23;;;;;;;100.10;42.90;;;;;;;2.09;89.62;101213.17;104748;1312;37029;-72
2022/11/26 04:33:01;;;;;;;93.40;41.70;;;;;;;2.12;89.64;101213.71;104770;1312;37268;-70
2022/11/26 04:35:41;;;;;;;115.60;49.30;;;;;;;2.15;89.79;101215.45;104771;1309;36347;-72
2022/11/26 04:38:15;;;;;;;104.80;45.70;;;;;;;2.17;89.76;101215.83;104763;1312;37185;-71
2022/11/26 04:40:51;;;;;;;109.80;44.30;;;;;;;2.16;89.61;101218.23;104784;1299;37290;-72
2022/11/26 04:43:27;;;;;;;106.10;45.10;;;;;;;2.12;89.54;101224.54;104781;1312;37119;-70
2022/11/26 04:46:01;;;;;;;98.40;42.60;;;;;;;2.10;89.87;101222.81;104747;1312;36978;-72
2022/11/26 04:48:37;;;;;;;92.20;40.10;;;;;;;2.10;89.76;101227.63;104801;1312;36919;-70
2022/11/26 04:51:16;;;;;;;90.40;41.90;;;;;;;2.08;89.64;101231.41;104761;1312;38248;-70
2022/11/26 04:53:52;;;;;;;93.90;42.00;;;;;;;2.11;89.86;101232.45;104787;1310;38478;-72
2022/11/26 04:56:28;;;;;;;94.70;40.00;;;;;;;2.13;89.87;101239.03;104782;1312;37086;-72
2022/11/26 04:59:04;;;;;;;95.00;42.00;;;;;;;2.16;89.89;101237.50;104794;1312;37140;-73
2022/11/26 05:01:40;;;;;;;89.80;38.40;;;;;;;2.17;90.04;101238.38;104761;1312;36998;-73
2022/11/26 05:04:17;;;;;;;90.60;38.00;;;;;;;2.15;89.71;101242.32;104783;1311;37007;-72
2022/11/26 05:06:50;;;;;;;82.20;34.80;;;;;;;2.10;89.47;101242.60;104775;1312;37193;-72
2022/11/26 05:09:27;;;;;;;75.00;34.20;;;;;;;2.06;89.55;101243.61;104697;1312;174683;-73
2022/11/26 05:12:04;;;;;;;73.20;33.90;;;;;;;2.04;89.47;101246.85;104749;1313;36879;-71
2022/11/26 05:14:38;;;;;;;72.90;33.50;;;;;;;2.07;89.52;101247.40;104461;1312;441115;-72
2022/11/26 05:17:13;;;;;;;76.20;34.70;;;;;;;2.08;89.54;101248.45;104752;1315;36713;-72
2022/11/26 05:19:49;;;;;;;71.80;34.50;;;;;;;2.08;89.56;101248.96;104784;1310;36386;-70
2022/11/26 05:22:27;;;;;;;74.70;33.80;;;;;;;2.09;89.54;101252.59;104780;1310;37224;-72
2022/11/26 05:25:01;;;;;;;70.90;32.80;;;;;;;2.05;89.38;101253.75;104771;1313;38798;-72
2022/11/26 05:27:36;;;;;;;71.20;30.90;;;;;;;2.01;89.35;101255.76;104792;1312;36911;-71
2022/11/26 05:30:18;;;;;;;67.00;33.40;;;;;;;1.99;89.37;101253.50;104788;1310;37058;-71
2022/11/26 05:32:53;;;;;;;64.40;29.80;;;;;;;1.98;89.42;101255.39;104775;1310;36507;-73
2022/11/26 05:35:27;;;;;;;63.50;30.30;;;;;;;1.98;89.29;101257.45;104794;1311;37038;-72
2022/11/26 05:38:00;;;;;;;59.90;28.60;;;;;;;2.00;89.50;101259.02;104761;1312;37243;-70
2022/11/26 05:40:38;;;;;;;61.00;28.50;;;;;;;2.03;89.75;101263.54;104785;1312;36913;-72
2022/11/26 05:43:12;;;;;;;67.50;29.30;;;;;;;2.03;89.44;101264.05;104789;1312;37046;-72
2022/11/26 05:45:48;;;;;;;70.70;29.40;;;;;;;1.98;89.35;101267.60;104765;1312;37140;-71
2022/11/26 05:48:22;;;;;;;60.20;28.10;;;;;;;1.94;89.33;101270.48;104789;1312;38444;-72
2022/11/26 05:51:01;;;;;;;65.20;29.90;;;;;;;1.93;89.28;101272.88;104781;1311;37020;-72
2022/11/26 05:53:36;;;;;;;70.30;30.30;;;;;;;1.89;89.16;101276.98;104792;1312;36903;-72
2022/11/26 05:56:10;;;;;;;60.50;29.00;;;;;;;1.90;89.20;101283.16;104761;1312;36977;-71
2022/11/26 05:58:45;;;;;;;66.20;28.70;;;;;;;1.91;89.23;101286.95;104785;1311;35944;-70
2022/11/26 06:01:21;;;;;;;63.70;29.80;;;;;;;1.91;89.30;101295.91;104753;1312;37024;-72
2022/11/26 06:03:56;;;;;;;70.30;29.40;;;;;;;1.89;89.28;101299.34;104786;1312;37148;-72
2022/11/26 06:06:32;;;;;;;65.20;28.50;;;;;;;1.90;89.38;101300.70;104755;1312;37039;-72
2022/11/26 06:09:08;;;;;;;66.30;28.10;;;;;;;1.87;89.26;101302.05;104774;1311;36992;-72
2022/11/26 06:11:42;;;;;;;62.80;27.90;;;;;;;1.84;89.17;101300.65;104747;1312;37020;-71
2022/11/26 06:14:19;;;;;;;60.20;27.40;;;;;;;1.84;89.20;101301.52;104814;1312;36126;-70
2022/11/26 06:16:53;;;;;;;58.70;29.30;;;;;;;1.85;89.20;101301.16;104771;1312;38154;-71
2022/11/26 06:19:29;;;;;;;62.70;27.10;;;;;;;1.88;89.40;101302.25;104801;1312;36953;-70
2022/11/26 06:22:03;;;;;;;66.60;30.20;;;;;;;1.90;89.49;101306.91;104765;1313;37002;-70
2022/11/26 06:24:40;;;;;;;57.10;26.80;;;;;;;1.91;89.47;101314.66;104671;1312;172484;-72
2022/11/26 06:27:15;;;;;;;64.30;26.90;;;;;;;1.87;89.21;101317.20;104779;1310;37577;-72
2022/11/26 06:29:51;;;;;;;61.70;26.70;;;;;;;1.84;89.13;101319.73;104761;1310;38250;-71
2022/11/26 06:32:25;;;;;;;63.00;29.40;;;;;;;1.81;89.14;101320.04;104814;1310;37518;-72
2022/11/26 06:34:59;;;;;;;51.90;24.00;;;;;;;1.80;89.10;101323.98;104776;1310;37052;-70
2022/11/26 06:37:33;;;;;;;55.40;24.80;;;;;;;1.82;89.31;101328.31;104791;1310;36537;-70
2022/11/26 06:40:11;;;;;;;64.50;29.00;;;;;;;1.84;89.40;101330.76;104758;1311;37113;-72
2022/11/26 06:42:49;;;;;;;60.50;27.80;;;;;;;1.82;89.25;101329.52;104774;1309;37210;-70
2022/11/26 06:45:23;;;;;;;60.70;26.80;;;;;;;1.79;89.21;101333.09;104785;1312;37258;-72
2022/11/26 06:47:57;;;;;;;57.40;24.60;;;;;;;1.74;89.17;101333.89;104752;1310;37189;-72
2022/11/26 06:50:32;;;;;;;58.80;27.20;;;;;;;1.70;88.98;101336.59;104768;1310;38426;-72
2022/11/26 06:53:10;;;;;;;53.90;27.30;;;;;;;1.68;89.02;101340.17;104752;1312;36993;-73
2022/11/26 06:55:44;;;;;;;51.60;24.80;;;;;;;1.67;89.02;101340.31;104786;1312;36661;-70
2022/11/26 06:58:20;;;;;;;55.60;25.10;;;;;;;1.68;89.16;101347.58;104801;1310;37158;-70
2022/11/26 07:00:57;;;;;;;55.20;26.80;;;;;;;1.70;89.24;101348.45;104761;1312;36216;-72
2022/11/26 07:03:34;;;;;;;60.40;28.80;;;;;;;1.69;89.16;101351.71;104808;1310;38306;-70
2022/11/26 07:06:15;;;;;;;62.50;31.30;;;;;;;1.67;89.08;101356.33;104794;1311;36704;-72
2022/11/26 07:08:52;;;;;;;60.90;29.40;;;;;;;1.62;89.03;101363.83;104823;1312;37001;-73
2022/11/26 07:11:33;;;;;;;51.00;23.10;;;;;;;1.60;89.22;101364.98;104764;1301;37157;-73
2022/11/26 07:14:07;;;;;;;43.70;21.20;;;;;;;1.63;89.40;101359.20;104805;1310;36907;-72
2022/11/26 07:16:41;;;;;;;50.50;23.00;;;;;;;1.63;89.09;101364.35;104747;1312;37120;-72
2022/11/26 07:19:18;;;;;;;53.20;23.70;;;;;;;1.62;88.99;101365.36;104561;1312;172473;-72
2022/11/26 07:21:53;;;;;;;49.60;23.60;;;;;;;1.63;89.09;101361.62;104802;1312;36686;-72
2022/11/26 07:24:30;;;;;;;45.70;24.90;;;;;;;1.63;89.06;101368.14;104798;1311;37018;-71
2022/11/26 07:27:06;;;;;;;59.10;24.90;;;;;;;1.63;89.12;101370.02;104756;1311;36049;-72
2022/11/26 07:29:42;;;;;;;57.30;24.20;;;;;;;1.62;89.01;101377.05;104820;1312;36932;-72
2022/11/26 07:32:19;;;;;;;54.40;21.30;;;;;;;1.62;89.11;101383.77;104779;1311;36993;-70
2022/11/26 07:34:53;;;;;;;61.00;24.70;;;;;;;1.63;88.90;101384.80;104750;1310;37145;-73
2022/11/26 07:37:26;;;;;;;53.50;24.60;;;;;;;1.64;88.96;101390.34;104756;1310;36358;-72
2022/11/26 07:40:00;;;;;;;56.30;25.50;;;;;;;1.65;89.01;101397.92;104793;1310;37237;-72
2022/11/26 07:42:35;;;;;;;53.60;25.50;;;;;;;1.67;89.18;101402.24;104747;1309;36112;-71
2022/11/26 07:45:14;;;;;;;55.00;25.50;;;;;;;1.66;89.06;101405.49;104757;1311;37191;-75
2022/11/26 07:47:49;;;;;;;57.40;25.20;;;;;;;1.63;89.03;101405.11;104717;1310;38322;-73
2022/11/26 07:50:28;;;;;;;51.90;22.40;;;;;;;1.63;89.11;101409.25;104786;1310;37015;-73
2022/11/26 07:53:10;;;;;;;44.50;22.60;;;;;;;1.65;88.98;101412.88;104746;1310;36897;-74
2022/11/26 07:55:47;;;;;;;46.20;21.70;;;;;;;1.69;89.12;101416.03;104758;1310;37043;-74
2022/11/26 07:58:30;;;;;;;55.60;25.00;;;;;;;1.72;89.18;101421.06;104798;1310;36503;-73
2022/11/26 08:01:12;;;;;;;52.50;24.20;;;;;;;1.75;89.13;101427.83;104653;1310;174286;-73
2022/11/26 08:03:51;;;;;;;51.10;24.20;;;;;;;1.76;89.29;101426.46;104789;1310;36096;-73
2022/11/26 08:06:26;;;;;;;57.40;25.80;;;;;;;1.78;89.22;101426.51;104750;1311;36903;-72
2022/11/26 08:09:04;;;;;;;52.30;24.90;;;;;;;1.75;88.87;101426.45;104729;1310;36992;-74
2022/11/26 08:11:41;;;;;;;51.20;21.80;;;;;;;1.74;88.83;101426.27;104768;1310;37698;-71
2022/11/26 08:14:15;;;;;;;45.00;23.70;;;;;;;1.76;88.94;101429.21;104748;1309;37199;-75
2022/11/26 08:16:49;;;;;;;43.50;22.70;;;;;;;1.77;89.02;101428.55;104749;1310;37042;-74
2022/11/26 08:19:23;;;;;;;49.80;25.30;;;;;;;1.78;88.79;101425.80;104748;1311;36916;-73
2022/11/26 08:22:00;;;;;;;46.50;22.20;;;;;;;1.78;89.02;101425.98;104739;1309;36373;-74
2022/11/26 08:24:38;;;;;;;49.60;23.40;;;;;;;1.77;88.78;101424.94;104764;1310;38241;-71
2022/11/26 08:27:14;;;;;;;46.70;21.10;;;;;;;1.73;88.80;101427.96;104720;1310;36911;-72
2022/11/26 08:29:52;;;;;;;48.50;22.50;;;;;;;1.76;89.13;101429.89;104743;1310;37256;-74
2022/11/26 08:32:28;;;;;;;44.30;22.80;;;;;;;1.81;89.21;101434.96;104724;1310;38156;-74
2022/11/26 08:35:05;;;;;;;44.80;20.80;;;;;;;1.84;88.92;101435.02;104742;1310;38319;-74
2022/11/26 08:37:41;;;;;;;39.90;21.30;;;;;;;1.86;88.85;101439.84;104751;1310;36968;-74
2022/11/26 08:40:17;;;;;;;47.30;22.30;;;;;;;1.87;89.00;101441.75;104793;1310;36680;-73
2022/11/26 08:42:57;;;;;;;45.50;22.40;;;;;;;1.87;88.80;101446.40;104733;1312;39585;-75
2022/11/26 08:45:31;;;;;;;48.80;23.80;;;;;;;1.81;88.50;101450.29;104764;1310;37175;-74
2022/11/26 08:48:06;;;;;;;49.30;22.30;;;;;;;1.77;88.59;101451.78;104756;1310;36076;-72
2022/11/26 08:50:40;;;;;;;52.50;21.50;;;;;;;1.75;88.84;101452.94;104732;1309;37101;-73
2022/11/26 08:53:15;;;;;;;41.20;20.70;;;;;;;1.73;88.57;101458.60;104755;1310;37233;-71
2022/11/26 08:55:53;;;;;;;43.00;21.20;;;;;;;1.72;88.62;101460.81;104740;1310;37032;-72
2022/11/26 08:58:27;;;;;;;41.40;21.00;;;;;;;1.75;88.86;101456.89;104775;1311;37526;-74
2022/11/26 09:01:05;;;;;;;45.70;21.90;;;;;;;1.79;88.91;101458.35;104745;1310;37353;-74
2022/11/26 09:03:42;;;;;;;45.20;22.50;;;;;;;1.83;88.99;101455.14;104766;1310;37009;-74
2022/11/26 09:06:21;;;;;;;45.00;22.50;;;;;;;1.84;88.95;101459.63;104727;1310;37079;-71
2022/11/26 09:09:16;;;;;;;43.60;22.60;;;;;;;1.84;88.87;101458.24;104108;1310;913694;-74
2022/11/26 09:11:54;;;;;;;48.20;22.50;;;;;;;1.84;88.88;101456.35;104766;1310;37268;-71
2022/11/26 09:14:30;;;;;;;46.90;24.90;;;;;;;1.84;88.73;101459.10;104802;1310;36927;-71
2022/11/26 09:17:10;;;;;;;40.50;22.20;;;;;;;1.84;88.75;101461.86;104713;1313;36884;-72
2022/11/26 09:19:43;;;;;;;;;;;;;;;1.85;88.64;101467.89;104824;1310;37166;-73
2022/11/26 09:22:20;;;;;;;42.20;20.80;;;;;;;1.85;88.61;101469.26;104772;1310;37022;-73
2022/11/26 09:24:55;;;;;;;49.30;21.80;;;;;;;1.85;88.74;101469.78;104704;1310;36659;-73
2022/11/26 09:27:30;;;;;;;47.90;22.70;;;;;;;1.84;88.62;101471.99;104764;1307;36153;-72
2022/11/26 09:30:07;;;;;;;55.20;25.90;;;;;;;1.78;88.54;101471.58;104785;1310;36952;-74
2022/11/26 09:32:48;;;;;;;48.20;24.30;;;;;;;1.76;88.69;101472.05;104772;1310;37050;-72
2022/11/26 09:35:26;;;;;;;47.60;24.40;;;;;;;1.77;88.65;101479.63;104793;1310;36965;-74
2022/11/26 09:38:01;;;;;;;46.20;24.40;;;;;;;1.80;88.72;101482.61;104665;1310;174573;-74
2022/11/26 09:40:41;;;;;;;41.30;21.80;;;;;;;1.87;88.98;101479.79;104748;1311;36926;-73
2022/11/26 09:43:22;;;;;;;46.20;24.40;;;;;;;1.94;89.18;101478.87;104771;1310;37029;-74
2022/11/26 09:45:58;;;;;;;;;;;;;;;2.01;89.21;101474.48;104759;1310;37151;-74
2022/11/26 09:48:34;;;;;;;43.90;20.90;;;;;;;2.02;88.98;101472.62;104780;1309;37099;-74
2022/11/26 09:51:16;;;;;;;56.00;24.00;;;;;;;2.00;88.82;101468.97;104757;1310;36856;-72
2022/11/26 09:53:52;;;;;;;43.60;20.60;;;;;;;1.99;88.82;101470.52;104755;1310;37105;-70
2022/11/26 09:56:33;;;;;;;49.30;22.90;;;;;;;1.99;88.87;101472.06;104750;1310;36949;-73
2022/11/26 09:59:15;;;;;;;47.40;21.50;;;;;;;2.02;88.80;101473.49;104768;1310;36990;-72
2022/11/26 10:01:53;;;;;;;42.10;20.80;;;;;;;2.05;88.70;101473.00;104767;1310;37259;-73
2022/11/26 10:04:33;;;;;;;47.00;25.40;;;;;;;2.12;89.02;101469.31;104767;1311;36804;-72
2022/11/26 10:07:28;;;;;;;46.20;23.60;;;;;;;2.12;88.48;101472.23;104679;1311;38202;-72
2022/11/26 10:10:25;;;;;;;49.90;25.30;;;;;;;2.12;88.44;101481.70;104740;1310;37153;-70
2022/11/26 10:13:08;;;;;;;43.50;22.70;;;;;;;2.11;88.39;101485.13;104743;1310;37264;-73
2022/11/26 10:20:59;;;;;;;40.30;20.50;;;;;;;2.09;88.30;101493.71;104893;1297;36944;-72
2022/11/26 10:23:40;;;;;;;44.40;22.10;;;;;;;2.08;87.95;101495.27;104535;1310;37024;-73
2022/11/26 10:26:21;;;;;;;43.20;22.40;;;;;;;2.09;88.05;101492.52;104782;1305;36378;-74
2022/11/26 10:29:13;;;;;;;48.80;23.30;;;;;;;2.13;88.33;101493.94;104777;1310;37553;-73
2022/11/26 10:31:49;;;;;;;44.20;21.70;;;;;;;2.15;88.09;101497.41;104809;1310;37114;-75
2022/11/26 10:34:30;;;;;;;43.10;22.00;;;;;;;2.11;87.96;101497.70;104782;1310;37014;-75
2022/11/26 10:37:09;;;;;;;45.10;24.20;;;;;;;2.09;87.96;101496.48;104789;1310;37123;-72
2022/11/26 10:39:45;;;;;;;46.40;22.70;;;;;;;2.06;87.92;101498.83;104651;1310;37071;-73
2022/11/26 10:42:23;;;;;;;44.30;23.90;;;;;;;2.06;88.21;101496.59;104794;1308;36752;-74
2022/11/26 10:45:06;;;;;;;44.30;22.60;;;;;;;2.09;87.83;101500.09;104769;1310;37069;-72
2022/11/26 10:47:40;;;;;;;38.80;23.20;;;;;;;2.11;87.77;101498.20;104793;1310;37141;-73
2022/11/26 10:50:25;;;;;;;44.40;23.20;;;;;;;2.15;88.05;101500.17;104748;1310;37133;-72
2022/11/26 10:53:06;;;;;;;44.90;21.90;;;;;;;2.23;88.17;101500.29;104828;1310;36032;-72
2022/11/26 10:55:43;;;;;;;41.90;22.50;;;;;;;2.24;87.77;101494.80;104781;1310;36399;-74
2022/11/26 10:58:22;;;;;;;44.60;23.80;;;;;;;2.23;87.60;101498.91;104718;1310;37188;-73
2022/11/26 11:01:07;;;;;;;45.50;23.70;;;;;;;2.18;87.46;101503.84;104789;1310;36961;-73
2022/11/26 11:03:57;;;;;;;46.30;21.60;;;;;;;2.14;87.64;101503.95;104762;1309;36996;-72
2022/11/26 11:06:47;;;;;;;40.70;20.90;;;;;;;2.12;87.53;101507.88;104702;1310;36150;-73
2022/11/26 11:09:35;;;;;;;46.50;24.40;;;;;;;2.14;87.53;101507.21;104801;1310;36565;-74
2022/11/26 11:12:23;;;;;;;43.80;22.20;;;;;;;2.16;87.61;101512.91;104792;1310;36918;-72
2022/11/26 11:15:09;;;;;;;43.90;22.00;;;;;;;2.14;87.53;101509.97;104765;1310;36898;-74
2022/11/26 11:17:46;;;;;;;45.60;22.60;;;;;;;2.15;87.57;101510.31;104783;1310;37204;-74
2022/11/26 11:20:40;;;;;;;46.90;25.40;;;;;;;2.12;87.53;101513.39;104642;1310;174326;-73
2022/11/26 11:23:25;;;;;;;47.40;24.50;;;;;;;2.11;87.55;101516.96;104729;1305;37030;-73
2022/11/26 11:26:03;;;;;;;47.30;26.90;;;;;;;2.11;87.65;101521.44;104722;1310;37012;-72
2022/11/26 11:28:42;;;;;;;39.70;20.50;;;;;;;2.16;87.68;101518.77;104698;1312;37065;-72
2022/11/26 11:31:17;;;;;;;42.50;23.30;;;;;;;2.18;87.50;101526.39;104791;1310;37005;-72
2022/11/26 11:33:52;;;;;;;47.50;22.90;;;;;;;2.19;87.56;101528.98;104779;1310;36912;-72
2022/11/26 11:36:30;;;;;;;40.60;22.60;;;;;;;2.17;87.19;101528.44;104673;1311;36007;-74
2022/11/26 11:39:05;;;;;;;47.50;23.80;;;;;;;2.13;87.09;101529.91;104792;1310;37102;-74
2022/11/26 11:41:43;;;;;;;52.00;25.60;;;;;;;2.11;87.29;101535.89;104695;1311;37342;-72
2022/11/26 11:44:23;;;;;;;49.80;23.70;;;;;;;2.12;87.45;101534.52;104779;1310;37212;-73
2022/11/26 11:47:36;;;;;;;46.60;23.30;;;;;;;2.11;87.34;101537.63;104750;1309;36869;-71
2022/11/26 11:50:22;;;;;;;42.20;22.90;;;;;;;2.10;87.01;101536.59;104770;1310;36412;-72
2022/11/26 11:53:17;;;;;;;50.30;24.70;;;;;;;2.11;87.06;101538.14;104801;1310;37041;-71
2022/11/26 11:56:17;;;;;;;44.50;22.90;;;;;;;2.13;86.92;101543.70;104776;1310;36965;-73
2022/11/26 11:59:05;;;;;;;47.70;25.00;;;;;;;2.14;86.89;101543.71;104781;1302;36381;-73
2022/11/26 12:01:58;;;;;;;48.40;25.80;;;;;;;2.11;86.86;101546.05;104795;1310;36999;-71